Time;durP1;ratioP1;P1;durP2;ratioP2;P2;SDS_P1;SDS_P2;PMS_P1;PMS_P2;Temp;Humidity;BMP_temperature;BMP_pressure;BME280_temperature;BME280_humidity;BME280_pressure;Samples;Min_cycle;Max_cycle;Signal;HPM_P1;HPM_P2
2021/12/16 00:09:39;;;;;;;46.87;29.73;;;10.10;99.90;;;;;;4998273;28;20536;-80
2021/12/16 00:31:52;;;;;;;46.23;29.40;;;10.00;99.90;;;;;;4962705;28;20524;-80
2021/12/16 00:34:21;;;;;;;44.63;26.23;;;10.00;99.90;;;;;;4998464;28;21037;-81
2021/12/16 00:36:49;;;;;;;47.43;30.20;;;10.00;99.90;;;;;;4998184;28;20463;-81
2021/12/16 00:39:18;;;;;;;44.30;28.40;;;10.00;99.90;;;;;;4998339;28;21925;-80
2021/12/16 00:41:50;;;;;;;52.20;31.43;;;10.00;99.90;;;;;;4998104;28;20466;-80
2021/12/16 00:44:35;;;;;;;48.10;30.50;;;9.90;99.90;;;;;;4998153;28;20502;-81
2021/12/16 00:47:25;;;;;;;55.37;31.93;;;10.00;99.90;;;;;;4983029;28;20449;-80
2021/12/16 00:49:53;;;;;;;53.97;31.60;;;9.90;99.90;;;;;;4998133;28;20495;-79
2021/12/16 00:55:20;;;;;;;56.17;32.90;;;9.90;99.90;;;;;;4987513;28;20444;-80
2021/12/16 00:57:50;;;;;;;54.27;32.93;;;9.90;99.90;;;;;;4998196;28;20997;-80
2021/12/16 01:00:17;;;;;;;52.87;32.10;;;9.90;99.90;;;;;;4997179;28;20447;-80
2021/12/16 01:02:57;;;;;;;53.17;30.67;;;9.80;99.90;;;;;;4990486;28;20498;-80
2021/12/16 01:08:30;;;;;;;56.27;31.53;;;9.90;99.90;;;;;;4998162;28;20451;-80
2021/12/16 01:36:07;;;;;;;51.63;30.27;;;10.10;99.90;;;;;;4997945;28;20527;-80
2021/12/16 01:50:03;;;;;;;59.23;31.63;;;10.20;99.90;;;;;;5071313;28;20444;-78
2021/12/16 01:52:51;;;;;;;51.63;32.47;;;10.10;99.90;;;;;;5087226;28;21003;-78
2021/12/16 01:55:25;;;;;;;55.03;32.70;;;10.10;99.90;;;;;;5070718;28;20915;-79
2021/12/16 01:57:56;;;;;;;62.20;32.80;;;10.10;99.90;;;;;;5072119;28;20933;-79
2021/12/16 02:00:31;;;;;;;56.70;32.57;;;10.00;99.90;;;;;;5071431;28;20449;-79
2021/12/16 02:03:02;;;;;;;58.03;33.37;;;10.10;99.90;;;;;;5071337;28;20492;-79
2021/12/16 02:05:53;;;;;;;52.30;32.57;;;10.10;99.90;;;;;;5071509;28;20449;-79
2021/12/16 02:08:23;;;;;;;55.37;32.20;;;10.20;99.90;;;;;;5071363;28;20458;-79
2021/12/16 02:36:28;;;;;;;55.73;32.70;;;10.40;99.90;;;;;;5075157;28;20487;-79
2021/12/16 02:38:59;;;;;;;61.07;32.73;;;10.40;99.90;;;;;;5112409;28;20832;-79
2021/12/16 02:41:28;;;;;;;58.80;34.40;;;10.50;99.90;;;;;;5125656;28;20487;-77
2021/12/16 02:49:23;;;;;;;63.97;36.80;;;10.40;99.90;;;;;;5132023;28;20848;-79
2021/12/16 02:51:50;;;;;;;62.60;35.97;;;10.40;99.90;;;;;;5120141;28;20448;-79
2021/12/16 02:54:18;;;;;;;73.13;35.87;;;10.40;99.90;;;;;;5112569;28;20466;-79
2021/12/16 02:56:45;;;;;;;66.50;37.23;;;10.40;99.90;;;;;;5124974;28;20453;-79
2021/12/16 02:59:15;;;;;;;69.77;37.27;;;10.50;99.90;;;;;;5128127;28;20824;-79
2021/12/16 03:01:46;;;;;;;63.70;36.70;;;10.40;99.90;;;;;;5112977;28;20460;-79
2021/12/16 03:04:16;;;;;;;64.90;39.23;;;10.40;99.90;;;;;;5113290;28;20470;-79
2021/12/16 03:06:45;;;;;;;75.13;37.63;;;10.40;99.90;;;;;;5112575;28;20449;-79
2021/12/16 03:09:17;;;;;;;59.03;34.23;;;10.30;99.90;;;;;;5112205;28;20544;-79
2021/12/16 03:12:04;;;;;;;64.47;33.77;;;10.30;99.90;;;;;;5128926;28;20510;-79
2021/12/16 03:14:37;;;;;;;75.00;35.80;;;10.30;99.90;;;;;;5132545;28;20459;-79
2021/12/16 03:17:14;;;;;;;55.60;33.67;;;10.20;99.90;;;;;;5112434;28;20495;-79
2021/12/16 03:19:56;;;;;;;61.67;34.80;;;10.20;99.90;;;;;;5111696;28;20478;-79
2021/12/16 03:22:43;;;;;;;64.33;37.27;;;10.10;99.90;;;;;;5111505;28;20472;-79
2021/12/16 03:25:19;;;;;;;68.83;38.07;;;10.10;99.90;;;;;;5126884;28;20455;-82
2021/12/16 03:33:42;;;;;;;68.53;34.53;;;10.00;99.90;;;;;;5115992;28;20463;-79
2021/12/16 03:36:25;;;;;;;65.97;35.90;;;9.90;99.90;;;;;;5106793;28;20482;-79
2021/12/16 03:38:54;;;;;;;64.10;34.53;;;10.00;99.90;;;;;;5098738;28;20545;-79
2021/12/16 03:41:22;;;;;;;61.70;36.37;;;10.00;99.90;;;;;;5097086;28;20457;-80
2021/12/16 03:43:51;;;;;;;63.57;33.03;;;10.00;99.90;;;;;;5107151;28;20490;-78
2021/12/16 03:46:26;;;;;;;63.90;36.80;;;10.00;99.90;;;;;;5105518;28;20453;-80
2021/12/16 03:49:00;;;;;;;66.33;35.43;;;10.00;99.90;;;;;;5114721;28;20466;-80
2021/12/16 03:51:29;;;;;;;63.93;35.27;;;10.00;99.90;;;;;;5097609;28;20986;-80
2021/12/16 03:53:59;;;;;;;67.97;36.93;;;10.00;99.90;;;;;;5097284;28;20459;-80
2021/12/16 03:56:29;;;;;;;66.97;37.50;;;9.90;99.90;;;;;;5097603;28;20659;-80
2021/12/16 03:58:58;;;;;;;62.43;34.70;;;9.90;99.90;;;;;;5113617;28;20461;-80
2021/12/16 04:01:29;;;;;;;84.00;42.70;;;9.90;99.90;;;;;;5116386;28;20445;-80
2021/12/16 04:03:56;;;;;;;64.47;37.00;;;9.90;99.90;;;;;;5106902;28;20472;-78
2021/12/16 04:06:25;;;;;;;73.37;38.07;;;9.90;99.90;;;;;;5117901;28;20444;-80
2021/12/16 04:08:54;;;;;;;62.27;36.30;;;9.90;99.90;;;;;;5102192;28;20556;-80
2021/12/16 04:11:24;;;;;;;76.87;39.07;;;9.90;99.90;;;;;;5117530;28;21029;-80
2021/12/16 04:13:56;;;;;;;64.87;38.90;;;9.90;99.90;;;;;;5116011;28;20472;-80
2021/12/16 04:16:29;;;;;;;79.13;39.37;;;9.90;99.90;;;;;;5117737;28;20482;-79
2021/12/16 04:18:58;;;;;;;67.63;34.90;;;10.00;99.90;;;;;;5099884;28;20455;-79
2021/12/16 04:21:27;;;;;;;70.40;36.50;;;10.00;99.90;;;;;;5097475;28;20834;-79
2021/12/16 04:23:55;;;;;;;71.23;38.67;;;10.00;99.90;;;;;;5107421;28;20828;-80
2021/12/16 04:26:23;;;;;;;79.93;41.67;;;10.10;99.90;;;;;;5102160;28;20447;-79
2021/12/16 04:28:50;;;;;;;74.17;39.87;;;10.00;99.90;;;;;;5098630;28;20624;-79
2021/12/16 04:31:17;;;;;;;65.10;36.10;;;10.00;99.90;;;;;;5108432;28;20538;-79
2021/12/16 04:33:47;;;;;;;69.97;40.20;;;9.90;99.90;;;;;;5116526;28;20467;-79
2021/12/16 04:36:15;;;;;;;63.00;34.50;;;9.90;99.90;;;;;;5097010;28;20478;-79
2021/12/16 04:38:44;;;;;;;68.20;37.43;;;10.00;99.90;;;;;;5102786;28;20636;-78
2021/12/16 04:41:13;;;;;;;79.60;39.77;;;10.00;99.90;;;;;;5108339;28;20812;-79
2021/12/16 04:43:44;;;;;;;66.37;36.07;;;10.00;99.90;;;;;;5107021;28;20476;-79
2021/12/16 04:46:14;;;;;;;68.80;35.67;;;10.10;99.90;;;;;;5108791;28;20440;-79
2021/12/16 04:48:43;;;;;;;73.47;38.50;;;10.10;99.90;;;;;;5111073;28;20452;-79
2021/12/16 04:51:12;;;;;;;74.40;38.43;;;10.00;99.90;;;;;;5100580;28;20448;-79
2021/12/16 04:53:41;;;;;;;64.80;37.50;;;10.00;99.90;;;;;;5116741;28;20465;-79
2021/12/16 04:56:10;;;;;;;70.00;37.63;;;10.00;99.90;;;;;;5116623;28;20489;-79
2021/12/16 04:58:37;;;;;;;75.37;38.67;;;10.00;99.90;;;;;;5096047;28;20458;-77
2021/12/16 05:01:05;;;;;;;71.13;37.50;;;10.00;99.90;;;;;;5096049;28;20825;-79
2021/12/16 05:03:33;;;;;;;68.50;37.17;;;10.00;99.90;;;;;;5108891;28;20481;-80
2021/12/16 05:06:00;;;;;;;71.13;37.17;;;10.00;99.90;;;;;;5116514;28;20436;-79
2021/12/16 05:08:28;;;;;;;68.23;37.23;;;9.90;99.90;;;;;;5097605;28;20455;-80
2021/12/16 05:10:58;;;;;;;66.17;36.93;;;9.90;99.90;;;;;;5095942;28;20448;-81
2021/12/16 05:13:27;;;;;;;68.00;35.60;;;9.80;99.90;;;;;;5107991;28;20471;-79
2021/12/16 05:15:55;;;;;;;67.10;36.40;;;9.80;99.90;;;;;;5096289;28;20491;-80
2021/12/16 05:18:29;;;;;;;69.97;37.50;;;9.80;99.90;;;;;;5095983;28;20491;-79
2021/12/16 05:20:56;;;;;;;63.33;35.47;;;9.80;99.90;;;;;;5095553;28;20485;-78
2021/12/16 05:26:17;;;;;;;61.20;33.97;;;9.70;99.90;;;;;;5115042;28;20866;-79
2021/12/16 05:28:47;;;;;;;74.23;36.20;;;9.70;99.90;;;;;;5096019;28;20463;-79
2021/12/16 05:31:15;;;;;;;69.73;36.23;;;9.70;99.90;;;;;;5103455;28;20452;-79
2021/12/16 05:33:42;;;;;;;70.17;36.33;;;9.70;99.90;;;;;;5105327;28;20479;-79
2021/12/16 05:36:09;;;;;;;66.30;36.20;;;9.70;99.90;;;;;;5096789;28;20486;-77
2021/12/16 05:38:37;;;;;;;63.93;33.97;;;9.80;99.90;;;;;;5097294;28;20451;-78
2021/12/16 05:41:05;;;;;;;65.43;35.30;;;9.80;99.90;;;;;;5094685;28;20459;-78
2021/12/16 05:43:35;;;;;;;73.97;36.63;;;9.80;99.90;;;;;;5104133;28;20478;-79
2021/12/16 05:46:03;;;;;;;74.63;38.53;;;9.80;99.90;;;;;;5111460;28;20448;-78
2021/12/16 05:48:33;;;;;;;70.03;37.70;;;9.80;99.90;;;;;;5096784;28;20452;-79
2021/12/16 05:51:03;;;;;;;69.57;36.30;;;9.80;99.90;;;;;;5097936;28;20834;-79
2021/12/16 05:53:31;;;;;;;68.10;37.97;;;9.80;99.90;;;;;;5116935;28;20537;-80
2021/12/16 05:55:58;;;;;;;69.53;37.20;;;9.80;99.90;;;;;;5098189;28;20481;-79
2021/12/16 05:58:26;;;;;;;68.07;39.70;;;9.90;99.90;;;;;;5114556;28;20457;-80
2021/12/16 06:00:56;;;;;;;72.27;38.00;;;9.90;99.90;;;;;;5095989;28;20464;-80
2021/12/16 06:03:24;;;;;;;58.37;33.00;;;9.90;99.90;;;;;;5115877;28;20477;-80
2021/12/16 06:05:52;;;;;;;68.57;35.67;;;9.90;99.90;;;;;;5100198;28;20826;-80
2021/12/16 06:08:19;;;;;;;57.50;32.30;;;9.90;99.90;;;;;;5099004;28;20451;-80
2021/12/16 06:13:34;;;;;;;58.73;33.53;;;9.80;99.90;;;;;;5100629;28;20528;-80
2021/12/16 06:27:06;;;;;;;70.43;37.03;;;9.50;99.90;;;;;;5112009;28;20426;-82
2021/12/16 06:29:33;;;;;;;72.47;35.80;;;9.40;99.90;;;;;;5115111;28;20843;-82
2021/12/16 06:32:02;;;;;;;66.97;34.47;;;9.30;99.90;;;;;;5110987;28;20450;-82
2021/12/16 06:34:28;;;;;;;69.70;32.33;;;9.20;99.90;;;;;;5116732;28;20472;-82
2021/12/16 06:36:56;;;;;;;64.07;33.40;;;9.10;99.90;;;;;;5119881;28;20474;-83
2021/12/16 06:39:23;;;;;;;60.73;32.87;;;9.00;99.90;;;;;;5114419;28;21026;-81
2021/12/16 06:41:50;;;;;;;63.93;33.80;;;8.90;99.90;;;;;;5118527;28;20489;-81
2021/12/16 06:44:22;;;;;;;57.07;32.47;;;8.90;99.90;;;;;;5108792;28;20467;-81
2021/12/16 06:46:51;;;;;;;62.10;33.90;;;8.80;99.90;;;;;;5109434;28;20445;-78
2021/12/16 06:49:21;;;;;;;68.30;34.33;;;8.80;99.90;;;;;;5104188;28;20512;-78
2021/12/16 06:51:51;;;;;;;73.50;37.67;;;8.80;99.90;;;;;;5099844;28;20444;-79
2021/12/16 06:54:25;;;;;;;72.07;37.80;;;8.70;99.90;;;;;;5098180;28;21021;-78
2021/12/16 06:57:01;;;;;;;75.80;37.43;;;8.80;99.90;;;;;;5094742;28;20482;-78
2021/12/16 06:59:31;;;;;;;65.53;33.50;;;8.90;99.90;;;;;;5101849;28;20467;-78
2021/12/16 07:02:11;;;;;;;76.57;37.57;;;9.00;99.90;;;;;;5108637;28;20456;-77
2021/12/16 07:04:43;;;;;;;66.93;37.13;;;9.00;99.90;;;;;;5096607;28;20456;-77
2021/12/16 07:07:11;;;;;;;70.77;37.20;;;9.10;99.90;;;;;;5108436;28;20446;-79
2021/12/16 07:09:38;;;;;;;67.30;35.90;;;9.20;99.90;;;;;;5101887;28;20446;-78
2021/12/16 07:12:09;;;;;;;74.27;34.90;;;9.30;99.90;;;;;;5105338;28;20451;-77
2021/12/16 07:14:39;;;;;;;71.67;38.20;;;9.40;99.90;;;;;;5110627;28;20535;-77
2021/12/16 07:17:08;;;;;;;63.97;34.77;;;9.40;99.90;;;;;;5101501;28;21009;-79
2021/12/16 07:19:35;;;;;;;68.50;37.77;;;9.40;99.90;;;;;;5107408;28;21068;-78
2021/12/16 07:22:05;;;;;;;67.27;35.37;;;9.50;99.90;;;;;;5099866;28;20444;-78
2021/12/16 07:24:33;;;;;;;58.87;34.37;;;9.50;99.90;;;;;;5105734;28;20457;-78
2021/12/16 07:26:59;;;;;;;61.50;32.30;;;9.60;99.90;;;;;;5108099;28;20448;-79
2021/12/16 07:29:27;;;;;;;69.13;37.00;;;9.60;99.90;;;;;;5100645;28;20444;-79
2021/12/16 07:31:55;;;;;;;67.27;34.13;;;9.70;99.90;;;;;;5105152;28;20851;-79
2021/12/16 07:34:22;;;;;;;59.00;35.20;;;9.70;99.90;;;;;;5100500;28;20541;-78
2021/12/16 07:36:49;;;;;;;72.30;37.73;;;9.80;99.90;;;;;;5104680;28;20558;-78
2021/12/16 07:39:19;;;;;;;68.30;36.20;;;9.80;99.90;;;;;;5098857;28;20455;-78
2021/12/16 07:41:49;;;;;;;74.30;40.17;;;9.90;99.90;;;;;;5100577;28;20442;-78
2021/12/16 07:44:16;;;;;;;69.67;39.57;;;10.00;99.90;;;;;;5104261;28;20506;-78
2021/12/16 07:47:08;;;;;;;76.03;39.87;;;9.90;99.90;;;;;;5096631;28;20839;-78
2021/12/16 07:49:39;;;;;;;63.77;36.53;;;10.00;99.90;;;;;;5107018;28;20535;-77
2021/12/16 07:52:08;;;;;;;80.00;38.67;;;10.00;99.90;;;;;;5103806;28;20453;-79
2021/12/16 07:54:36;;;;;;;73.70;37.77;;;10.00;99.90;;;;;;5098410;28;20453;-78
2021/12/16 07:57:05;;;;;;;69.63;36.63;;;10.10;99.90;;;;;;5106419;28;20491;-79
2021/12/16 07:59:34;;;;;;;67.73;38.20;;;10.10;99.90;;;;;;5098497;28;20824;-78
2021/12/16 08:02:01;;;;;;;70.10;37.40;;;10.10;99.90;;;;;;5109307;28;20446;-78
2021/12/16 08:04:31;;;;;;;72.23;39.00;;;10.10;99.90;;;;;;5109063;28;20447;-78
2021/12/16 08:07:03;;;;;;;76.87;39.47;;;10.10;99.90;;;;;;5106563;28;20836;-78
2021/12/16 08:09:30;;;;;;;77.13;40.20;;;10.10;99.90;;;;;;5098143;28;20460;-78
2021/12/16 08:11:59;;;;;;;72.73;37.97;;;10.00;99.90;;;;;;5105216;28;20442;-78
2021/12/16 08:14:26;;;;;;;86.07;42.10;;;10.10;99.90;;;;;;5093529;28;20443;-78
2021/12/16 08:16:53;;;;;;;81.20;39.57;;;10.10;99.90;;;;;;5095166;28;20479;-77
2021/12/16 08:19:20;;;;;;;78.33;39.63;;;10.10;99.90;;;;;;5102479;28;20454;-78
2021/12/16 08:21:46;;;;;;;75.30;39.53;;;10.10;99.90;;;;;;5101068;28;20457;-78
2021/12/16 08:24:16;;;;;;;75.87;38.50;;;10.10;99.90;;;;;;5100300;28;20463;-78
2021/12/16 08:26:43;;;;;;;61.10;35.37;;;10.20;99.90;;;;;;5099073;28;20451;-77
2021/12/16 08:29:12;;;;;;;86.77;41.63;;;10.20;99.90;;;;;;5103550;28;20462;-76
2021/12/16 08:31:40;;;;;;;71.73;39.47;;;10.20;99.90;;;;;;5111764;28;20435;-76
2021/12/16 08:34:07;;;;;;;78.63;38.93;;;10.30;99.90;;;;;;5105838;28;20490;-77
2021/12/16 08:36:34;;;;;;;68.67;38.70;;;10.30;99.90;;;;;;5097578;28;20487;-77
2021/12/16 08:39:03;;;;;;;75.13;38.17;;;10.30;99.90;;;;;;5100201;28;20452;-76
2021/12/16 08:41:32;;;;;;;73.43;37.90;;;10.30;99.90;;;;;;5105406;28;20481;-76
2021/12/16 08:44:00;;;;;;;73.63;39.60;;;10.30;99.90;;;;;;5106700;28;20477;-78
2021/12/16 08:46:32;;;;;;;79.10;38.50;;;10.40;99.90;;;;;;5096945;28;20452;-78
2021/12/16 08:49:00;;;;;;;76.27;41.10;;;10.40;99.90;;;;;;5099987;28;20456;-78
2021/12/16 08:51:30;;;;;;;114.97;59.47;;;10.40;99.90;;;;;;5096366;28;20459;-79
2021/12/16 08:53:58;;;;;;;78.63;43.20;;;10.40;99.90;;;;;;5107407;28;20849;-78
2021/12/16 08:56:27;;;;;;;83.20;42.13;;;10.40;99.90;;;;;;5096868;28;20484;-78
2021/12/16 08:58:54;;;;;;;83.57;43.90;;;10.40;99.90;;;;;;5107309;28;20508;-77
2021/12/16 09:01:26;;;;;;;83.63;44.27;;;10.40;99.90;;;;;;5100918;28;20449;-77
2021/12/16 09:03:56;;;;;;;95.47;45.57;;;10.40;99.90;;;;;;5102342;28;20474;-77
2021/12/16 09:06:24;;;;;;;89.37;44.00;;;10.30;99.90;;;;;;5100078;28;20456;-78
2021/12/16 09:08:52;;;;;;;77.63;39.37;;;10.30;99.90;;;;;;5102051;28;20448;-78
2021/12/16 09:11:22;;;;;;;81.63;41.57;;;10.30;99.90;;;;;;5100965;28;20466;-77
2021/12/16 09:13:51;;;;;;;74.93;38.47;;;10.30;99.90;;;;;;5101126;28;20464;-75
2021/12/16 09:16:21;;;;;;;77.40;40.07;;;10.30;99.90;;;;;;5101867;28;20448;-77
2021/12/16 09:18:48;;;;;;;94.67;47.33;;;10.30;99.90;;;;;;5100741;28;20467;-77
2021/12/16 09:21:18;;;;;;;80.07;40.80;;;10.20;99.90;;;;;;5098918;28;20453;-77
2021/12/16 09:23:47;;;;;;;82.87;43.57;;;10.40;99.90;;;;;;5099098;28;20889;-77
2021/12/16 09:26:15;;;;;;;88.00;43.20;;;10.30;99.90;;;;;;5102377;28;20467;-79
2021/12/16 09:28:43;;;;;;;82.73;42.23;;;10.40;99.90;;;;;;5099897;28;20524;-77
2021/12/16 09:31:12;;;;;;;74.77;40.27;;;10.30;99.90;;;;;;5098260;28;20454;-75
2021/12/16 09:33:42;;;;;;;73.60;40.50;;;10.50;99.90;;;;;;5103079;28;20498;-77
2021/12/16 09:36:09;;;;;;;89.97;42.47;;;10.50;99.90;;;;;;5102537;28;20483;-80
2021/12/16 09:38:37;;;;;;;75.17;40.27;;;10.40;99.90;;;;;;5102707;28;20884;-79
2021/12/16 09:41:04;;;;;;;85.47;41.20;;;10.30;99.90;;;;;;5103566;28;20534;-79
2021/12/16 09:43:34;;;;;;;75.47;39.90;;;10.40;99.90;;;;;;5119403;28;20471;-80
2021/12/16 09:46:03;;;;;;;82.83;38.10;;;10.60;99.90;;;;;;5131944;28;20438;-79
2021/12/16 09:48:31;;;;;;;78.70;37.00;;;10.70;99.90;;;;;;5118193;28;20828;-79
2021/12/16 09:51:00;;;;;;;80.10;39.03;;;10.80;99.90;;;;;;5113127;28;20853;-79
2021/12/16 09:53:28;;;;;;;79.03;38.70;;;10.90;99.90;;;;;;5095427;28;21036;-80
2021/12/16 09:56:00;;;;;;;83.33;41.33;;;10.80;99.90;;;;;;5101645;28;20449;-79
2021/12/16 09:58:29;;;;;;;72.27;36.10;;;10.80;99.90;;;;;;5099853;28;20495;-79
2021/12/16 10:00:56;;;;;;;74.07;34.20;;;10.90;99.90;;;;;;5096618;28;20464;-79
2021/12/16 10:03:25;;;;;;;81.60;39.37;;;11.00;99.90;;;;;;5104227;28;20468;-77
2021/12/16 10:05:52;;;;;;;79.23;41.13;;;11.00;99.90;;;;;;5096614;28;20448;-77
2021/12/16 10:08:19;;;;;;;74.37;37.23;;;11.00;99.90;;;;;;5106899;28;20462;-76
2021/12/16 10:10:46;;;;;;;77.27;37.57;;;11.10;99.90;;;;;;5102853;28;20556;-77
2021/12/16 10:13:21;;;;;;;81.80;37.73;;;11.10;99.90;;;;;;5098263;28;20842;-78
2021/12/16 10:18:33;;;;;;;86.90;43.20;;;10.90;99.90;;;;;;5102319;28;20481;-77
2021/12/16 10:21:02;;;;;;;101.47;45.80;;;10.90;99.90;;;;;;5100072;28;20829;-76
2021/12/16 10:23:33;;;;;;;87.27;38.50;;;10.70;99.90;;;;;;5099901;28;20468;-76
2021/12/16 10:26:02;;;;;;;92.23;41.20;;;10.90;99.90;;;;;;5101065;28;20444;-77
2021/12/16 10:28:35;;;;;;;89.83;43.93;;;10.90;99.90;;;;;;5099891;28;20435;-78
2021/12/16 10:31:06;;;;;;;83.03;42.33;;;10.90;99.90;;;;;;5096764;28;20445;-75
2021/12/16 10:33:38;;;;;;;97.87;42.77;;;10.80;99.90;;;;;;5100961;28;20472;-80
2021/12/16 10:36:11;;;;;;;84.60;37.90;;;10.90;99.90;;;;;;5102157;28;20455;-80
2021/12/16 10:38:40;;;;;;;85.43;38.80;;;10.90;99.90;;;;;;5106986;28;20485;-79
2021/12/16 10:41:08;;;;;;;84.23;39.10;;;11.00;99.90;;;;;;5106697;28;20480;-78
2021/12/16 10:43:40;;;;;;;87.60;37.57;;;11.00;99.90;;;;;;5102776;28;20474;-79
2021/12/16 10:46:10;;;;;;;78.13;37.77;;;11.00;99.90;;;;;;5108537;28;20451;-80
2021/12/16 10:48:39;;;;;;;103.07;42.57;;;11.10;99.90;;;;;;5106263;28;20445;-78
2021/12/16 10:51:23;;;;;;;81.07;37.57;;;11.00;99.90;;;;;;5118470;28;20456;-79
2021/12/16 10:54:09;;;;;;;85.13;40.10;;;11.10;99.90;;;;;;5116234;28;20999;-80
2021/12/16 10:56:44;;;;;;;78.40;37.67;;;11.00;99.90;;;;;;5100095;28;21010;-78
2021/12/16 10:59:16;;;;;;;84.13;38.03;;;11.00;99.90;;;;;;5112539;28;20948;-79
2021/12/16 11:01:51;;;;;;;96.20;40.20;;;11.10;99.90;;;;;;5095881;28;20460;-76
2021/12/16 11:04:23;;;;;;;90.33;41.67;;;11.00;99.90;;;;;;5098278;28;20479;-79
2021/12/16 11:06:53;;;;;;;91.00;38.50;;;11.00;99.90;;;;;;5109748;28;20898;-78
2021/12/16 11:09:42;;;;;;;97.50;43.40;;;11.10;99.90;;;;;;5101685;28;20473;-79
2021/12/16 11:12:14;;;;;;;84.80;38.13;;;11.20;99.90;;;;;;5097165;28;20449;-78
2021/12/16 11:14:47;;;;;;;101.70;43.50;;;11.20;99.90;;;;;;5099908;28;20449;-76
2021/12/16 11:17:16;;;;;;;89.33;40.40;;;11.10;99.90;;;;;;5119203;28;20577;-77
2021/12/16 11:19:47;;;;;;;85.07;41.53;;;11.20;99.90;;;;;;5127547;28;20444;-79
2021/12/16 11:22:16;;;;;;;87.87;40.87;;;11.30;99.90;;;;;;5111458;28;20991;-76
2021/12/16 11:24:44;;;;;;;96.80;39.57;;;11.30;99.90;;;;;;5101200;28;20957;-76
2021/12/16 11:27:29;;;;;;;94.37;39.67;;;11.30;99.90;;;;;;5099144;28;20542;-78
2021/12/16 11:30:18;;;;;;;105.40;45.70;;;11.30;99.90;;;;;;5103777;28;21044;-77
2021/12/16 11:32:47;;;;;;;102.90;42.87;;;11.20;99.90;;;;;;5099297;28;20485;-77
2021/12/16 11:35:33;;;;;;;104.87;43.50;;;11.10;99.90;;;;;;5102933;28;20452;-78
2021/12/16 11:38:06;;;;;;;105.30;43.53;;;11.00;99.90;;;;;;5096648;28;20489;-76
2021/12/16 11:40:52;;;;;;;115.27;46.63;;;11.00;99.90;;;;;;5111154;28;20445;-77
2021/12/16 11:43:32;;;;;;;95.37;37.23;;;11.10;99.90;;;;;;5106599;28;20471;-77
2021/12/16 11:46:00;;;;;;;89.80;43.70;;;11.20;99.90;;;;;;5111670;28;20465;-77
2021/12/16 11:48:35;;;;;;;103.60;40.67;;;11.20;99.90;;;;;;5108008;28;20465;-77
2021/12/16 11:51:13;;;;;;;114.33;43.23;;;11.30;99.90;;;;;;5096868;28;20452;-76
2021/12/16 11:53:46;;;;;;;94.30;40.13;;;11.30;99.90;;;;;;5095580;28;20475;-78
2021/12/16 11:56:13;;;;;;;100.27;40.50;;;11.30;99.90;;;;;;5094169;28;20893;-77
2021/12/16 11:58:42;;;;;;;99.43;39.23;;;11.10;99.90;;;;;;5101114;28;20484;-79
2021/12/16 12:01:20;;;;;;;97.03;40.67;;;11.30;99.90;;;;;;5119160;28;20502;-80
2021/12/16 12:03:49;;;;;;;88.73;36.90;;;11.40;99.90;;;;;;5104950;28;20461;-80
2021/12/16 12:06:23;;;;;;;87.57;36.80;;;11.40;99.90;;;;;;5104874;28;20451;-80
2021/12/16 12:08:52;;;;;;;91.47;38.43;;;11.40;99.90;;;;;;5099944;28;20503;-80
2021/12/16 12:11:22;;;;;;;81.23;37.50;;;11.50;99.90;;;;;;5095951;28;20834;-79
2021/12/16 12:13:52;;;;;;;80.83;37.43;;;11.50;99.90;;;;;;5094340;28;20891;-79
2021/12/16 12:16:23;;;;;;;78.47;37.40;;;11.30;99.90;;;;;;5101074;28;20493;-80
2021/12/16 12:18:53;;;;;;;83.33;36.63;;;11.40;99.90;;;;;;5101543;28;20870;-77
2021/12/16 12:21:27;;;;;;;81.57;36.83;;;11.40;99.90;;;;;;5096639;28;20446;-79
2021/12/16 12:23:57;;;;;;;81.50;36.87;;;11.50;99.90;;;;;;5102331;28;20471;-79
2021/12/16 12:26:26;;;;;;;71.07;33.30;;;11.60;99.90;;;;;;5105712;28;20457;-79
2021/12/16 12:28:55;;;;;;;71.50;34.43;;;11.70;99.90;;;;;;5102523;28;20437;-79
2021/12/16 12:31:28;;;;;;;67.53;32.87;;;11.50;99.90;;;;;;5099002;28;20798;-78
2021/12/16 12:33:55;;;;;;;72.03;33.70;;;11.70;99.90;;;;;;5101003;28;20469;-78
2021/12/16 12:36:23;;;;;;;76.27;36.40;;;11.60;99.90;;;;;;5103716;28;20455;-79
2021/12/16 12:38:52;;;;;;;79.07;35.03;;;11.70;99.90;;;;;;5107443;28;20477;-80
2021/12/16 12:41:19;;;;;;;77.88;36.05;;;11.70;99.90;;;;;;5110384;28;20512;-80
2021/12/16 12:43:46;;;;;;;78.47;36.50;;;11.80;99.90;;;;;;5112236;28;20302;-80
2021/12/16 12:46:13;;;;;;;67.30;34.57;;;12.00;99.90;;;;;;5103353;28;20441;-78
2021/12/16 12:48:43;;;;;;;72.43;36.30;;;12.00;99.90;;;;;;5102375;28;20949;-78
2021/12/16 12:51:10;;;;;;;79.37;37.40;;;12.00;99.90;;;;;;5101883;28;20446;-79
2021/12/16 12:53:46;;;;;;;74.20;36.13;;;12.10;99.90;;;;;;5100936;28;20516;-77
2021/12/16 12:56:16;;;;;;;76.30;34.13;;;12.30;99.90;;;;;;5103914;28;20449;-78
2021/12/16 12:58:55;;;;;;;75.27;35.73;;;12.30;99.90;;;;;;5101197;28;20477;-78
2021/12/16 13:01:38;;;;;;;88.40;36.17;;;12.20;99.90;;;;;;5102670;28;20815;-78
2021/12/16 13:04:11;;;;;;;67.20;34.27;;;11.90;99.90;;;;;;5103488;28;20464;-79
2021/12/16 13:07:02;;;;;;;75.70;37.70;;;11.90;99.90;;;;;;5101039;28;20428;-77
2021/12/16 13:09:39;;;;;;;65.70;33.43;;;11.90;99.90;;;;;;5097483;28;20449;-78
2021/12/16 13:12:34;;;;;;;74.80;35.57;;;11.80;99.90;;;;;;5105086;28;20894;-78
2021/12/16 13:15:09;;;;;;;78.70;37.40;;;11.90;99.90;;;;;;5102376;28;20464;-77
2021/12/16 13:23:32;;;;;;;82.10;39.80;;;11.80;99.90;;;;;;5098484;28;20463;-78
2021/12/16 13:26:34;;;;;;;77.60;36.17;;;11.70;99.90;;;;;;5097030;28;20541;-79
2021/12/16 13:29:08;;;;;;;80.03;36.27;;;11.70;99.90;;;;;;5094195;28;20476;-78
2021/12/16 13:31:49;;;;;;;79.93;35.70;;;11.70;99.90;;;;;;5092982;28;20467;-78
2021/12/16 13:34:29;;;;;;;83.20;36.90;;;11.70;99.90;;;;;;5108735;28;20857;-79
2021/12/16 13:37:03;;;;;;;82.57;37.63;;;11.70;99.90;;;;;;5095599;28;20463;-79
2021/12/16 13:39:30;;;;;;;84.70;38.13;;;11.70;99.90;;;;;;5097878;28;20492;-79
2021/12/16 13:42:04;;;;;;;78.03;37.47;;;11.60;99.90;;;;;;5113411;28;20451;-79
2021/12/16 13:44:51;;;;;;;80.33;37.07;;;11.50;99.90;;;;;;5110531;28;20824;-79
2021/12/16 13:47:32;;;;;;;92.47;41.50;;;11.50;99.90;;;;;;5093118;28;20445;-78
2021/12/16 14:02:00;;;;;;;71.57;37.40;;;11.60;99.90;;;;;;5101955;28;20960;-78
2021/12/16 14:04:42;;;;;;;79.63;36.70;;;11.60;99.90;;;;;;5095137;28;20445;-78
2021/12/16 14:07:29;;;;;;;77.73;36.90;;;11.50;99.90;;;;;;5111255;28;20456;-78
2021/12/16 14:10:05;;;;;;;74.73;36.40;;;11.60;99.90;;;;;;5094176;28;20527;-78
2021/12/16 14:15:22;;;;;;;77.93;37.20;;;11.60;99.90;;;;;;5098001;28;20436;-78
2021/12/16 14:17:56;;;;;;;82.33;39.20;;;11.50;99.90;;;;;;5093098;28;20543;-77
2021/12/16 14:23:24;;;;;;;82.30;38.83;;;11.30;99.90;;;;;;5096707;28;20455;-78
2021/12/16 14:37:16;;;;;;;77.60;35.93;;;11.30;99.90;;;;;;5095698;28;20425;-77
2021/12/16 14:40:00;;;;;;;76.57;35.60;;;11.30;99.90;;;;;;5095685;28;20495;-78
2021/12/16 14:42:41;;;;;;;69.43;36.70;;;11.30;99.90;;;;;;5092019;28;20990;-78
2021/12/16 14:45:22;;;;;;;76.47;36.77;;;11.40;99.90;;;;;;5099953;28;20449;-79
2021/12/16 14:50:44;;;;;;;70.67;34.43;;;11.20;99.90;;;;;;5103753;28;20413;-78
2021/12/16 14:53:16;;;;;;;81.93;37.90;;;11.20;99.90;;;;;;5102424;28;20459;-79
2021/12/16 14:55:44;;;;;;;66.83;33.97;;;11.10;99.90;;;;;;5099525;28;20467;-79
2021/12/16 14:58:12;;;;;;;72.60;35.97;;;11.10;99.90;;;;;;5102817;28;20848;-78
2021/12/16 15:00:45;;;;;;;75.53;36.60;;;11.00;99.90;;;;;;5101008;28;20444;-78
2021/12/16 15:03:15;;;;;;;75.83;35.57;;;10.90;99.90;;;;;;5103251;28;20464;-78
2021/12/16 15:05:45;;;;;;;97.07;40.37;;;10.80;99.90;;;;;;5100991;28;20956;-80
2021/12/16 15:08:22;;;;;;;76.60;35.37;;;10.80;99.90;;;;;;5103550;28;20473;-79
2021/12/16 15:10:56;;;;;;;71.17;34.00;;;10.80;99.90;;;;;;5102825;28;20472;-78
2021/12/16 15:13:34;;;;;;;72.50;33.30;;;10.80;99.90;;;;;;5102779;28;20509;-79
2021/12/16 15:16:28;;;;;;;82.73;37.43;;;10.90;99.90;;;;;;5104428;28;20821;-79
2021/12/16 15:36:27;;;;;;;82.40;39.93;;;10.60;99.90;;;;;;5059345;28;20832;-79
2021/12/16 15:39:06;;;;;;;97.67;38.50;;;10.50;99.90;;;;;;5119900;28;20497;-79
2021/12/16 15:44:17;;;;;;;72.43;35.27;;;10.40;99.90;;;;;;5104582;28;20449;-79
2021/12/16 15:46:45;;;;;;;85.13;36.93;;;10.50;99.90;;;;;;5105763;28;20829;-79
2021/12/16 15:49:15;;;;;;;65.37;33.43;;;10.50;99.90;;;;;;5107334;28;20444;-79
2021/12/16 15:51:42;;;;;;;70.30;34.40;;;10.50;99.90;;;;;;5104514;28;20444;-79
2021/12/16 15:54:12;;;;;;;74.33;34.43;;;10.50;99.90;;;;;;5104844;28;20471;-80